首页
METAR-TAF:

METAR-TAF

机场 :

诺曼·曼利国际机场

京斯敦, 牙买加

纬度: 17-56N, 经度: 076-47W, 海拔: 3米

当前天气观测

该预报发布于1小时和8分钟前的09:00 UTC
风速5节,风向西北
温度 27°C
湿度 70%
气压 1012 hPa
能见度10公里或以上
少量云层高于2200英尺

METAR: MKJP 150900Z 32005KT 9999 FEW022 27/21 Q1012

时间: 05:08 (10:08 UTC)

预报

该预报发布于4小时和53分钟前的05:15 UTC
预报有效从15日的 06点(UTC)到 16日的 06点(UTC)
风速4节,风向北转西北
能见度10公里或以上
少量云层高于2200英尺
成为
从 15日的 14点(UTC)到 15日的 16点(UTC)
风速10节,风向南转南东
短暂存在
从 15日的 19点(UTC)到 15日的 24点(UTC)
散云层高于1800英尺
散云层高于2000英尺, 积雨云.
雷暴
成为
从 16日的 01点(UTC)到 16日的 03点(UTC)
风速4节,风向北转西北

TAF: MKJP 150515Z 1506/1606 34004KT 9999 FEW022 BECMG 1514/1516 16010KT TEMPO 1519/1524 TS SCT018 SCT020CB BECMG 1601/1603 34004KT

超过4000个机场的气象观测和天气预报(METAR&TAF报告)。

可查询的气象台以黄色和红色小点在地图上表示。

将鼠标移到小点上方,可查看气象台名称。

然后点击查看天气观测和预报。

如需切换地图:点击带黑十字的绿色按钮放大地图;点击带横线的绿色按钮缩小地图;或者点击绿色箭头查看邻近地区的地图。


METAR-TAF: